createdAt,value
2023-05-22T00:02:23.232Z,5.25
2023-05-22T00:04:54.930Z,4.85
2023-05-22T00:07:28.373Z,4.60
2023-05-22T00:09:59.264Z,4.43
2023-05-22T00:12:30.046Z,4.68
2023-05-22T00:15:00.973Z,5.93
2023-05-22T00:17:34.850Z,4.28
2023-05-22T00:20:08.568Z,4.75
2023-05-22T00:22:42.701Z,4.53
2023-05-22T00:25:14.861Z,4.40
2023-05-22T00:27:45.565Z,4.85
2023-05-22T00:30:17.206Z,4.80
2023-05-22T00:32:48.106Z,4.65
2023-05-22T00:35:19.812Z,4.45
2023-05-22T00:37:53.173Z,4.75
2023-05-22T00:40:25.131Z,5.15
2023-05-22T00:42:55.962Z,4.65
2023-05-22T00:45:26.808Z,4.30
2023-05-22T00:47:57.678Z,5.05
2023-05-22T00:50:28.750Z,4.72
2023-05-22T00:53:02.124Z,4.55
2023-05-22T00:55:33.047Z,4.95
2023-05-22T00:58:07.967Z,4.70
2023-05-22T01:00:40.679Z,4.50
2023-05-22T01:03:12.666Z,4.53
2023-05-22T01:05:44.840Z,5.15
2023-05-22T01:08:18.255Z,4.38
2023-05-22T01:10:49.437Z,4.20
2023-05-22T01:13:31.783Z,4.53
2023-05-22T01:16:14.014Z,4.15
2023-05-22T01:18:52.733Z,4.78
2023-05-22T01:21:31.535Z,4.30
2023-05-22T01:24:43.434Z,4.22
2023-05-22T01:27:35.519Z,5.80
2023-05-22T01:30:30.831Z,4.25
2023-05-22T01:33:06.931Z,4.13
2023-05-22T01:35:41.263Z,4.30
2023-05-22T01:38:14.128Z,4.70
2023-05-22T01:40:45.562Z,4.65
2023-05-22T01:43:17.524Z,4.53
2023-05-22T01:45:49.446Z,4.50
2023-05-22T01:48:22.889Z,4.30
2023-05-22T01:50:56.420Z,5.30
2023-05-22T01:53:33.311Z,4.57
2023-05-22T01:56:09.564Z,5.25
2023-05-22T01:58:48.590Z,5.20
2023-05-22T02:01:22.681Z,4.78
2023-05-22T02:04:00.232Z,4.15
2023-05-22T02:06:33.737Z,4.60
2023-05-22T02:09:06.231Z,4.60
2023-05-22T02:11:40.741Z,4.82
2023-05-22T02:14:12.537Z,4.63
2023-05-22T02:16:47.224Z,4.50
2023-05-22T02:19:21.020Z,4.88
2023-05-22T02:22:14.024Z,4.60
2023-05-22T02:24:47.184Z,4.50
2023-05-22T02:27:19.802Z,4.57
2023-05-22T02:29:50.912Z,4.32
2023-05-22T02:32:21.737Z,4.20
2023-05-22T02:34:55.133Z,4.78
2023-05-22T02:37:25.979Z,4.70
2023-05-22T02:39:56.888Z,4.65
2023-05-22T02:42:28.699Z,4.85
2023-05-22T02:44:59.526Z,4.60
2023-05-22T02:47:30.337Z,4.30
2023-05-22T02:50:04.159Z,4.82
2023-05-22T02:52:39.673Z,4.70
2023-05-22T02:55:12.189Z,4.50
2023-05-22T02:57:43.125Z,4.70
2023-05-22T03:00:17.351Z,4.55
2023-05-22T03:02:48.356Z,4.72
2023-05-22T03:05:22.676Z,4.65
2023-05-22T03:07:56.308Z,5.15
2023-05-22T03:10:27.457Z,4.72
2023-05-22T03:12:58.170Z,5.00
2023-05-22T03:15:29.003Z,4.57
2023-05-22T03:18:05.904Z,4.80
2023-05-22T03:20:39.482Z,5.18
2023-05-22T03:23:10.550Z,5.13
2023-05-22T03:25:41.369Z,4.55
2023-05-22T03:28:12.262Z,4.35
2023-05-22T03:30:44.883Z,5.05
2023-05-22T03:33:21.809Z,4.80
2023-05-22T03:35:56.797Z,4.43
2023-05-22T03:38:27.589Z,4.68
2023-05-22T03:40:58.765Z,5.05
2023-05-22T03:43:29.550Z,4.85
2023-05-22T03:46:01.578Z,4.40
2023-05-22T03:48:32.558Z,4.53
2023-05-22T03:51:06.240Z,4.85
2023-05-22T03:53:37.421Z,4.72
2023-05-22T03:56:08.709Z,5.00
2023-05-22T03:58:39.668Z,5.32
2023-05-22T04:01:11.673Z,5.65
2023-05-22T04:03:43.985Z,4.80
2023-05-22T04:06:17.961Z,5.35
2023-05-22T04:08:50.215Z,5.30
2023-05-22T04:11:22.509Z,4.78
2023-05-22T04:13:54.028Z,5.70
2023-05-22T04:16:24.877Z,5.80
2023-05-22T04:18:55.662Z,5.53
2023-05-22T04:21:29.196Z,5.47
2023-05-22T04:23:59.892Z,5.75
2023-05-22T04:26:33.459Z,5.35
2023-05-22T04:29:04.193Z,5.40
2023-05-22T04:31:35.531Z,6.93
2023-05-22T04:34:06.455Z,6.28
2023-05-22T04:36:39.859Z,5.80
2023-05-22T04:39:10.637Z,5.05
2023-05-22T04:41:41.982Z,4.95
2023-05-22T04:44:12.846Z,4.97
2023-05-22T04:46:44.223Z,5.07
2023-05-22T04:49:15.121Z,5.40
2023-05-22T04:51:48.835Z,5.15
2023-05-22T04:54:19.648Z,5.68
2023-05-22T04:56:50.628Z,5.88
2023-05-22T04:59:23.696Z,5.97
2023-05-22T05:01:54.609Z,5.57
2023-05-22T05:04:25.763Z,5.30
2023-05-22T05:07:02.752Z,5.22
2023-05-22T05:09:33.589Z,5.00
2023-05-22T05:12:06.265Z,5.35
2023-05-22T05:14:37.189Z,4.55
2023-05-22T05:17:08.698Z,5.68
2023-05-22T05:19:40.086Z,5.82
2023-05-22T05:22:13.728Z,5.88
2023-05-22T05:24:45.160Z,5.45
2023-05-22T05:27:16.119Z,4.82
2023-05-22T05:29:48.513Z,5.60
2023-05-22T05:32:31.053Z,5.65
2023-05-22T05:35:20.355Z,4.82
2023-05-22T05:37:58.617Z,4.50
2023-05-22T05:40:31.837Z,4.55
2023-05-22T05:43:02.698Z,4.35
2023-05-22T05:45:33.788Z,3.90
2023-05-22T05:48:05.614Z,4.35
2023-05-22T05:50:39.159Z,5.13
2023-05-22T05:53:13.431Z,4.40
2023-05-22T05:55:51.916Z,4.22
2023-05-22T05:58:24.016Z,4.40
2023-05-22T06:01:10.595Z,4.53
2023-05-22T06:03:42.189Z,3.53
2023-05-22T06:06:30.166Z,3.85
2023-05-22T06:09:15.837Z,4.25
2023-05-22T06:12:06.744Z,5.80
2023-05-22T06:14:37.789Z,4.00
2023-05-22T06:17:09.570Z,3.65
2023-05-22T06:19:43.032Z,3.70
2023-05-22T06:22:14.629Z,4.60
2023-05-22T06:24:50.530Z,4.10
2023-05-22T06:27:24.508Z,3.65
2023-05-22T06:29:56.486Z,4.07
2023-05-22T06:32:29.554Z,3.70
2023-05-22T06:35:00.613Z,3.58
2023-05-22T06:37:38.188Z,3.47
2023-05-22T06:40:16.305Z,3.40
2023-05-22T06:42:53.778Z,3.85
2023-05-22T06:45:24.593Z,3.60
2023-05-22T06:48:23.410Z,3.20
2023-05-22T06:51:15.461Z,3.50
2023-05-22T06:53:46.900Z,3.50
2023-05-22T06:56:25.723Z,3.13
2023-05-22T06:59:07.097Z,3.10
2023-05-22T07:02:00.747Z,3.50
2023-05-22T07:04:55.688Z,3.75
2023-05-22T07:07:42.942Z,3.40
2023-05-22T07:10:15.033Z,3.13
2023-05-22T07:12:48.362Z,3.83
2023-05-22T07:15:19.316Z,3.15
2023-05-22T07:17:55.371Z,3.90
2023-05-22T07:20:26.675Z,3.30
2023-05-22T07:23:10.183Z,3.30
2023-05-22T07:25:42.658Z,5.10
2023-05-22T07:28:17.249Z,3.45
2023-05-22T07:31:01.314Z,3.47
2023-05-22T07:33:33.368Z,4.70
2023-05-22T07:36:04.298Z,3.83
2023-05-22T07:38:35.312Z,3.97
2023-05-22T07:41:07.354Z,3.78
2023-05-22T07:43:41.543Z,3.70
2023-05-22T07:46:14.683Z,3.88
2023-05-22T07:48:58.052Z,3.10
2023-05-22T07:51:28.924Z,3.85
2023-05-22T07:56:56.457Z,3.40
2023-05-22T07:59:31.287Z,3.73
2023-05-22T08:02:03.141Z,3.63
2023-05-22T08:04:34.187Z,3.60
2023-05-22T08:07:04.945Z,3.28
2023-05-22T08:09:35.822Z,3.50
2023-05-22T08:12:07.723Z,3.33
2023-05-22T08:14:41.587Z,3.60
2023-05-22T08:17:12.642Z,4.15
2023-05-22T08:19:43.692Z,4.18
2023-05-22T08:22:14.450Z,3.40
2023-05-22T08:24:45.237Z,3.15
2023-05-22T08:27:16.021Z,3.03
2023-05-22T08:29:49.396Z,3.70
2023-05-22T08:32:20.182Z,3.40
2023-05-22T08:34:51.046Z,2.95
2023-05-22T08:37:21.938Z,3.33
2023-05-22T08:39:52.714Z,3.80
2023-05-22T08:42:23.636Z,3.45
2023-05-22T08:45:01.407Z,3.10
2023-05-22T08:47:39.841Z,3.35
2023-05-22T08:50:12.351Z,3.13
2023-05-22T08:52:54.609Z,3.00
2023-05-22T08:55:25.587Z,3.15
2023-05-22T08:57:58.144Z,2.88
2023-05-22T09:00:31.606Z,2.88
2023-05-22T09:03:03.118Z,3.28
2023-05-22T09:05:34.537Z,3.30
2023-05-22T09:08:18.968Z,3.33
2023-05-22T09:10:51.032Z,3.65
2023-05-22T09:13:30.724Z,3.65
2023-05-22T09:16:12.302Z,3.53
2023-05-22T09:18:44.432Z,3.20
2023-05-22T09:21:29.686Z,2.95
2023-05-22T09:24:03.983Z,3.50
2023-05-22T09:26:34.725Z,3.45
2023-05-22T09:29:05.541Z,3.65
2023-05-22T09:31:44.983Z,3.22
2023-05-22T09:34:18.363Z,3.40
2023-05-22T09:36:50.452Z,3.35
2023-05-22T09:39:21.389Z,3.22
2023-05-22T09:41:52.199Z,3.58
2023-05-22T09:44:23.220Z,3.67
2023-05-22T09:46:58.176Z,3.55
2023-05-22T09:49:29.024Z,4.00
2023-05-22T09:52:01.126Z,3.53
2023-05-22T09:54:37.549Z,3.30
2023-05-22T09:57:13.074Z,3.75
2023-05-22T09:59:47.142Z,3.92
2023-05-22T10:02:21.555Z,3.10
2023-05-22T10:04:53.285Z,3.28
2023-05-22T10:07:27.604Z,3.20
2023-05-22T10:10:07.715Z,3.03
2023-05-22T10:12:45.491Z,3.20
2023-05-22T10:15:16.727Z,3.03
2023-05-22T10:17:51.446Z,2.95
2023-05-22T10:20:23.198Z,3.00
2023-05-22T10:22:54.311Z,3.80
2023-05-22T10:25:26.240Z,3.75
2023-05-22T10:27:58.210Z,7.90
2023-05-22T10:30:37.302Z,2.90
2023-05-22T10:33:34.553Z,3.05
2023-05-22T10:36:10.966Z,3.13
2023-05-22T10:38:57.482Z,3.00
2023-05-22T10:41:31.478Z,2.90
2023-05-22T10:44:02.374Z,3.20
2023-05-22T10:46:37.036Z,2.90
2023-05-22T10:49:10.595Z,2.70
2023-05-22T10:51:41.759Z,3.13
2023-05-22T10:54:12.669Z,2.80
2023-05-22T10:56:43.600Z,2.85
2023-05-22T10:59:14.423Z,2.90
2023-05-22T11:01:45.520Z,3.00
2023-05-22T11:04:28.664Z,3.10
2023-05-22T11:07:08.099Z,3.28
2023-05-22T11:09:46.234Z,2.63
2023-05-22T11:12:19.787Z,2.70
2023-05-22T11:14:58.692Z,3.10
2023-05-22T11:17:31.420Z,3.30
2023-05-22T11:20:08.586Z,3.22
2023-05-22T11:22:42.138Z,3.33
2023-05-22T11:25:14.399Z,2.78
2023-05-22T11:27:45.585Z,2.97
2023-05-22T11:30:17.697Z,3.25
2023-05-22T11:32:49.363Z,3.67
2023-05-22T11:35:24.321Z,3.28
2023-05-22T11:40:27.894Z,3.10
2023-05-22T11:42:59.392Z,3.30
2023-05-22T11:45:30.452Z,3.00
2023-05-22T11:48:01.289Z,2.97
2023-05-22T11:50:42.326Z,2.90
2023-05-22T11:53:13.990Z,3.03
2023-05-22T11:55:46.610Z,3.05
2023-05-22T11:58:20.125Z,2.85
2023-05-22T12:00:51.160Z,3.47
2023-05-22T12:03:23.015Z,2.80
2023-05-22T12:05:58.744Z,3.10
2023-05-22T12:08:29.864Z,3.63
2023-05-22T12:11:00.991Z,3.83
2023-05-22T12:13:33.278Z,3.03
2023-05-22T12:16:04.258Z,2.92
2023-05-22T12:18:39.887Z,2.78
2023-05-22T12:21:14.272Z,2.88
2023-05-22T12:23:52.350Z,3.63
2023-05-22T12:26:23.432Z,2.60
2023-05-22T12:28:56.808Z,2.70
2023-05-22T12:31:28.312Z,3.08
2023-05-22T12:33:59.888Z,2.45
2023-05-22T12:36:43.809Z,2.78
2023-05-22T12:39:15.704Z,2.90
2023-05-22T12:41:47.202Z,3.20
2023-05-22T12:44:19.396Z,3.30
2023-05-22T12:46:50.686Z,3.80
2023-05-22T12:49:21.747Z,4.00
2023-05-22T12:51:55.193Z,3.83
2023-05-22T12:54:26.192Z,3.20
2023-05-22T12:56:57.253Z,3.92
2023-05-22T12:59:28.302Z,3.20
2023-05-22T13:02:02.411Z,3.47
2023-05-22T13:04:33.625Z,3.22
2023-05-22T13:07:07.361Z,3.47
2023-05-22T13:09:39.080Z,3.30
2023-05-22T13:12:11.591Z,2.90
2023-05-22T13:14:42.603Z,3.65
2023-05-22T13:17:13.548Z,3.47
2023-05-22T13:19:44.467Z,4.10
2023-05-22T13:22:18.656Z,3.58
2023-05-22T13:24:49.849Z,3.70
2023-05-22T13:27:21.370Z,3.60
2023-05-22T13:29:52.550Z,5.20
2023-05-22T13:32:23.982Z,3.60
2023-05-22T13:34:54.937Z,6.93
2023-05-22T13:37:28.687Z,4.35
2023-05-22T13:39:59.871Z,3.30
2023-05-22T13:42:30.850Z,3.95
2023-05-22T13:45:04.147Z,3.78
2023-05-22T13:47:36.972Z,4.53
2023-05-22T13:50:08.826Z,3.20
2023-05-22T13:52:42.435Z,3.03
2023-05-22T13:55:14.066Z,2.78
2023-05-22T13:57:45.049Z,3.13
2023-05-22T14:00:17.984Z,3.05
2023-05-22T14:02:50.406Z,3.38
2023-05-22T14:05:21.457Z,3.38
2023-05-22T14:07:57.154Z,3.70
2023-05-22T14:10:28.111Z,3.03
2023-05-22T14:12:59.264Z,3.00
2023-05-22T14:15:30.281Z,3.33
2023-05-22T14:18:01.034Z,2.65
2023-05-22T14:20:32.100Z,3.20
2023-05-22T14:23:07.154Z,2.60
2023-05-22T14:25:38.228Z,2.33
2023-05-22T14:28:09.091Z,2.35
2023-05-22T14:30:41.079Z,2.22
2023-05-22T14:33:12.171Z,3.25
2023-05-22T14:35:43.204Z,2.40
2023-05-22T14:38:16.924Z,3.40
2023-05-22T14:40:47.754Z,3.10
2023-05-22T14:43:18.794Z,3.63
2023-05-22T14:45:49.663Z,3.75
2023-05-22T14:48:23.073Z,3.40
2023-05-22T14:50:53.971Z,3.35
2023-05-22T14:53:27.892Z,3.45
2023-05-22T14:55:58.778Z,3.50
2023-05-22T14:58:29.665Z,4.97
2023-05-22T15:01:00.561Z,3.47
2023-05-22T15:03:31.416Z,3.55
2023-05-22T15:06:02.315Z,4.18
2023-05-22T15:08:36.963Z,4.00
2023-05-22T15:11:08.000Z,4.47
2023-05-22T15:13:39.036Z,3.50
2023-05-22T15:16:12.172Z,4.25
2023-05-22T15:18:43.552Z,3.80
2023-05-22T15:21:14.612Z,3.83
2023-05-22T15:23:48.432Z,4.53
2023-05-22T15:26:19.452Z,3.60
2023-05-22T15:28:50.351Z,4.28
2023-05-22T15:31:21.408Z,3.58
2023-05-22T15:33:52.377Z,4.47
2023-05-22T15:36:23.522Z,4.10
2023-05-22T15:38:57.122Z,4.22
2023-05-22T15:41:27.929Z,4.30
2023-05-22T15:43:59.209Z,4.05
2023-05-22T15:46:29.959Z,3.88
2023-05-22T15:49:00.786Z,4.18
2023-05-22T15:51:33.111Z,4.15
2023-05-22T15:54:09.748Z,3.90
2023-05-22T15:56:40.684Z,4.10
2023-05-22T15:59:11.598Z,3.95
2023-05-22T16:01:42.407Z,4.07
2023-05-22T16:04:13.277Z,3.40
2023-05-22T16:06:44.094Z,4.00
2023-05-22T16:09:19.726Z,3.78
2023-05-22T16:11:50.712Z,3.97
2023-05-22T16:14:21.698Z,4.30
2023-05-22T16:16:52.617Z,4.22
2023-05-22T16:19:23.572Z,5.55
2023-05-22T16:21:54.437Z,6.32
2023-05-22T16:24:27.998Z,5.50
2023-05-22T16:27:01.018Z,4.53
2023-05-22T16:29:32.819Z,3.65
2023-05-22T16:32:04.073Z,4.30
2023-05-22T16:34:36.890Z,5.38
2023-05-22T16:37:09.276Z,4.80
2023-05-22T16:39:42.938Z,4.70
2023-05-22T16:42:13.825Z,5.07
2023-05-22T16:44:44.718Z,5.13
2023-05-22T16:47:15.627Z,4.90
2023-05-22T16:49:46.521Z,3.95
2023-05-22T16:52:18.355Z,4.28
2023-05-22T16:54:51.926Z,4.55
2023-05-22T16:57:22.889Z,4.32
2023-05-22T16:59:54.529Z,4.40
2023-05-22T17:02:26.725Z,5.05
2023-05-22T17:04:57.674Z,5.45
2023-05-22T17:07:28.566Z,5.03
2023-05-22T17:10:02.069Z,4.45
2023-05-22T17:12:36.266Z,4.85
2023-05-22T17:15:08.333Z,4.80
2023-05-22T17:17:39.538Z,4.40
2023-05-22T17:20:11.805Z,4.38
2023-05-22T17:22:42.583Z,4.60
2023-05-22T17:25:16.894Z,5.25
2023-05-22T17:27:47.803Z,5.05
2023-05-22T17:30:18.899Z,4.57
2023-05-22T17:32:50.456Z,4.20
2023-05-22T17:35:21.513Z,4.85
2023-05-22T17:37:52.604Z,6.18
2023-05-22T17:40:36.554Z,6.43
2023-05-22T17:43:15.564Z,5.30
2023-05-22T17:45:50.372Z,6.00
2023-05-22T17:48:24.021Z,5.22
2023-05-22T17:50:55.095Z,4.63
2023-05-22T17:53:26.823Z,5.80
2023-05-22T17:56:00.348Z,5.55
2023-05-22T17:58:31.529Z,5.70
2023-05-22T18:01:02.584Z,5.05
2023-05-22T18:03:34.394Z,4.55
2023-05-22T18:06:05.327Z,4.90
2023-05-22T18:08:36.211Z,6.03
2023-05-22T18:11:09.761Z,5.63
2023-05-22T18:13:40.497Z,5.78
2023-05-22T18:16:11.698Z,6.07
2023-05-22T18:18:42.576Z,5.72
2023-05-22T18:21:13.503Z,5.57
2023-05-22T18:23:44.330Z,5.75
2023-05-22T18:26:17.792Z,5.32
2023-05-22T18:28:48.731Z,5.30
2023-05-22T18:31:19.862Z,5.07
2023-05-22T18:33:50.725Z,4.43
2023-05-22T18:36:21.941Z,4.95
2023-05-22T18:38:52.760Z,5.05
2023-05-22T18:41:29.418Z,5.10
2023-05-22T18:44:00.205Z,5.15
2023-05-22T18:46:31.619Z,4.90
2023-05-22T18:49:02.436Z,4.90
2023-05-22T18:51:33.744Z,5.60
2023-05-22T18:54:04.575Z,5.57
2023-05-22T18:56:39.156Z,6.22
2023-05-22T18:59:10.119Z,6.50
2023-05-22T19:01:41.079Z,6.68
2023-05-22T19:04:12.148Z,6.40
2023-05-22T19:06:43.526Z,5.05
2023-05-22T19:09:14.651Z,5.50
2023-05-22T19:11:48.170Z,16.23
2023-05-22T19:14:19.033Z,9.40
2023-05-22T19:16:49.920Z,7.10
2023-05-22T19:19:20.944Z,7.05
2023-05-22T19:21:54.857Z,6.70
2023-05-22T19:24:25.864Z,6.90
2023-05-22T19:26:59.292Z,7.10
2023-05-22T19:29:30.384Z,6.93
2023-05-22T19:32:01.220Z,6.80
2023-05-22T19:34:32.116Z,6.25
2023-05-22T19:37:02.955Z,6.25
2023-05-22T19:39:33.898Z,6.30
2023-05-22T19:42:09.875Z,7.03
2023-05-22T19:44:40.721Z,6.03
2023-05-22T19:47:11.718Z,6.50
2023-05-22T19:49:42.603Z,8.13
2023-05-22T19:52:13.523Z,6.57
2023-05-22T19:54:44.365Z,7.03
2023-05-22T19:57:17.928Z,8.38
2023-05-22T19:59:48.988Z,8.95
2023-05-22T20:02:20.131Z,6.90
2023-05-22T20:04:52.333Z,7.82
2023-05-22T20:07:23.093Z,7.40
2023-05-22T20:09:53.862Z,7.90
2023-05-22T20:12:27.194Z,8.10
2023-05-22T20:14:58.837Z,8.35
2023-05-22T20:17:29.783Z,8.88
2023-05-22T20:20:01.647Z,8.63
2023-05-22T20:22:33.886Z,7.50
2023-05-22T20:25:05.477Z,7.53
2023-05-22T20:27:39.207Z,7.15
2023-05-22T20:30:11.888Z,7.22
2023-05-22T20:32:43.677Z,7.22
2023-05-22T20:35:14.651Z,6.10
2023-05-22T20:37:46.512Z,6.60
2023-05-22T20:40:17.964Z,6.10
2023-05-22T20:42:53.566Z,6.03
2023-05-22T20:45:24.409Z,5.22
2023-05-22T20:47:55.211Z,7.43
2023-05-22T20:50:26.243Z,7.43
2023-05-22T20:52:57.423Z,8.63
2023-05-22T20:55:28.156Z,7.07
2023-05-22T20:58:01.632Z,7.43
2023-05-22T21:00:32.499Z,7.93
2023-05-22T21:03:03.658Z,6.50
2023-05-22T21:05:34.535Z,6.88
2023-05-22T21:08:05.461Z,6.00
2023-05-22T21:10:36.294Z,5.82
2023-05-22T21:13:09.685Z,5.30
2023-05-22T21:15:40.597Z,5.72
2023-05-22T21:18:12.353Z,5.72
2023-05-22T21:20:43.531Z,5.10
2023-05-22T21:23:14.643Z,5.57
2023-05-22T21:25:45.516Z,5.03
2023-05-22T21:28:18.907Z,5.20
2023-05-22T21:30:49.700Z,4.68
2023-05-22T21:33:20.944Z,5.38
2023-05-22T21:35:51.722Z,5.97
2023-05-22T21:38:22.587Z,6.00
2023-05-22T21:40:53.363Z,6.15
2023-05-22T21:43:26.923Z,6.07
2023-05-22T21:45:57.809Z,5.47
2023-05-22T21:48:28.685Z,5.30
2023-05-22T21:50:59.432Z,6.30
2023-05-22T21:53:30.347Z,5.80
2023-05-22T21:56:01.142Z,5.22
2023-05-22T21:58:34.675Z,5.38
2023-05-22T22:01:05.427Z,5.72
2023-05-22T22:03:36.297Z,5.68
2023-05-22T22:06:07.541Z,5.65
2023-05-22T22:08:38.343Z,5.60
2023-05-22T22:11:09.235Z,5.07
2023-05-22T22:13:42.751Z,5.15
2023-05-22T22:16:13.624Z,5.50
2023-05-22T22:18:44.524Z,5.25
2023-05-22T22:21:15.808Z,5.28
2023-05-22T22:23:46.564Z,6.22
2023-05-22T22:26:17.475Z,5.95
2023-05-22T22:28:50.973Z,5.15
2023-05-22T22:31:22.049Z,5.25
2023-05-22T22:33:52.872Z,4.32
2023-05-22T22:36:23.694Z,4.78
2023-05-22T22:38:54.740Z,4.95
2023-05-22T22:41:25.752Z,4.90
2023-05-22T22:43:59.199Z,4.15
2023-05-22T22:46:29.985Z,4.65
2023-05-22T22:49:02.111Z,4.35
2023-05-22T22:51:33.281Z,4.50
2023-05-22T22:54:04.161Z,5.03
2023-05-22T22:56:35.065Z,4.90
2023-05-22T22:59:08.664Z,4.78
2023-05-22T23:01:39.374Z,4.70
2023-05-22T23:04:10.329Z,4.40
2023-05-22T23:06:42.137Z,5.78
2023-05-22T23:09:13.092Z,4.43
2023-05-22T23:11:43.894Z,4.47
2023-05-22T23:14:18.151Z,4.32
2023-05-22T23:16:49.062Z,4.70
2023-05-22T23:19:20.080Z,4.55
2023-05-22T23:21:52.190Z,4.53
2023-05-22T23:24:22.990Z,4.03
2023-05-22T23:26:53.748Z,4.15
2023-05-22T23:29:27.303Z,4.07
2023-05-22T23:31:58.167Z,3.78
2023-05-22T23:34:29.102Z,4.25
2023-05-22T23:36:59.845Z,4.10
2023-05-22T23:39:30.853Z,4.35
2023-05-22T23:42:02.460Z,4.80
2023-05-22T23:44:36.048Z,4.95
2023-05-22T23:47:07.181Z,4.63
2023-05-22T23:49:38.085Z,4.03
2023-05-22T23:52:09.380Z,4.45
2023-05-22T23:54:40.168Z,4.55
2023-05-22T23:57:11.247Z,4.32
2023-05-22T23:59:46.801Z,4.70
